Maersk Bali — 9V7499 — position and weather

sailwx.info

Track history (hours):
 
Tides and Currents Weather Stations Pressure Air Temp Water Temp Dewpoint Dewpoint Depression Visibility Wind Speed Wind Dir Waves Ship Positions

Maersk Bali

Last reported at 2017-Nov-15 18:03 UTC. Time now 2017-Nov-22 07:29 UTC.
Position N 35°59' W 005°31'.

Length 223 m; draft 11.2 m.

Type: Ship (hazmat cat A). MMSI: 563102000.

Date/timePositionNaut miles runAvg speedWind from/ knotsBaromVisibWave heightAir tempDewpointWater temp
2017-Nov-15 18:03N 35°59' W 005°31'110.7
2017-Nov-15 18:00N 35°59' W 005°30'510.3
2017-Nov-15 17:30N 36°01' W 005°25'7 0.5
2017-Nov-15 02:53N 36°08' W 005°26'0 0.0
2017-Nov-15 02:23N 36°08' W 005°26'0 0.0
2017-Nov-15 00:29N 36°08' W 005°26'0 0.0
2017-Nov-14 23:59N 36°08' W 005°26'0 0.0
2017-Nov-14 23:23N 36°08' W 005°26'0 0.0
2017-Nov-14 20:50N 36°08' W 005°26'3 0.2
2017-Nov-14 08:42N 36°07' W 005°23'2 9.8
2017-Nov-14 08:30N 36°05' W 005°23'1 1.4
2017-Nov-14 08:00N 36°04' W 005°22'3 6.4
2017-Nov-14 07:30N 36°03' W 005°18'8 2.7
2017-Nov-14 04:41N 36°04' W 005°09'0 0.7
2017-Nov-14 04:30N 36°04' W 005°09'0 0.6
2017-Nov-14 04:00N 36°04' W 005°10'0 0.5
2017-Nov-14 03:27N 36°04' W 005°10'0 0.4
2017-Nov-14 03:00N 36°05' W 005°10'1 1.2
2017-Nov-14 02:30N 36°05' W 005°10'1 1.1
2017-Nov-14 02:00N 36°05' W 005°09'34311.0
2017-Nov-12 18:53N 36°52' E 001°53'  
2017-Nov-10 14:44N 36°33' E 014°05'311.5
2017-Nov-10 14:30N 36°32' E 014°09'611.2
2017-Nov-10 13:59N 36°31' E 014°16'810.9
2017-Nov-10 13:14N 36°28' E 014°25'210.4
2017-Nov-10 13:00N 36°27' E 014°28'510.3
2017-Nov-10 12:30N 36°26' E 014°34'510.2
2017-Nov-10 12:00N 36°25' E 014°40'510.3
2017-Nov-10 11:30N 36°23' E 014°47'  
2017-Nov-05 20:49N 40°45' E 029°31'512.3
2017-Nov-05 20:26N 40°44' E 029°25'3 7.0
2017-Nov-05 20:00N 40°43' E 029°21'510.4
2017-Nov-05 19:30N 40°43' E 029°14'5 9.5
2017-Nov-05 19:00N 40°42' E 029°08'0 0.3
2017-Nov-05 18:29N 40°42' E 029°08'  
Track history (hours):
 
Tides and Currents Weather Stations Pressure Air Temp Water Temp Dewpoint Dewpoint Depression Visibility Wind Speed Wind Dir Waves Ship Positions

Maersk Bali

Last reported at 2017-Nov-15 18:03 UTC. Time now 2017-Nov-22 07:29 UTC.
Position N 35°59' W 005°31'.

Length 223 m; draft 11.2 m.

Type: Ship (hazmat cat A). MMSI: 563102000.

Date/timePositionNaut miles runAvg speedWind from/ knotsBaromVisibWave heightAir tempDewpointWater temp
2017-Nov-15 18:03N 35°59' W 005°31'110.7
2017-Nov-15 18:00N 35°59' W 005°30'510.3
2017-Nov-15 17:30N 36°01' W 005°25'7 0.5
2017-Nov-15 02:53N 36°08' W 005°26'0 0.0
2017-Nov-15 02:23N 36°08' W 005°26'0 0.0
2017-Nov-15 00:29N 36°08' W 005°26'0 0.0
2017-Nov-14 23:59N 36°08' W 005°26'0 0.0
2017-Nov-14 23:23N 36°08' W 005°26'0 0.0
2017-Nov-14 20:50N 36°08' W 005°26'3 0.2
2017-Nov-14 08:42N 36°07' W 005°23'2 9.8
2017-Nov-14 08:30N 36°05' W 005°23'1 1.4
2017-Nov-14 08:00N 36°04' W 005°22'3 6.4
2017-Nov-14 07:30N 36°03' W 005°18'8 2.7
2017-Nov-14 04:41N 36°04' W 005°09'0 0.7
2017-Nov-14 04:30N 36°04' W 005°09'0 0.6
2017-Nov-14 04:00N 36°04' W 005°10'0 0.5
2017-Nov-14 03:27N 36°04' W 005°10'0 0.4
2017-Nov-14 03:00N 36°05' W 005°10'1 1.2
2017-Nov-14 02:30N 36°05' W 005°10'1 1.1
2017-Nov-14 02:00N 36°05' W 005°09'34311.0
2017-Nov-12 18:53N 36°52' E 001°53'  
2017-Nov-10 14:44N 36°33' E 014°05'311.5
2017-Nov-10 14:30N 36°32' E 014°09'611.2
2017-Nov-10 13:59N 36°31' E 014°16'810.9
2017-Nov-10 13:14N 36°28' E 014°25'210.4
2017-Nov-10 13:00N 36°27' E 014°28'510.3
2017-Nov-10 12:30N 36°26' E 014°34'510.2
2017-Nov-10 12:00N 36°25' E 014°40'510.3
2017-Nov-10 11:30N 36°23' E 014°47'  
2017-Nov-05 20:49N 40°45' E 029°31'512.3
2017-Nov-05 20:26N 40°44' E 029°25'3 7.0
2017-Nov-05 20:00N 40°43' E 029°21'510.4
2017-Nov-05 19:30N 40°43' E 029°14'5 9.5
2017-Nov-05 19:00N 40°42' E 029°08'0 0.3
2017-Nov-05 18:29N 40°42' E 029°08'  

Dump ship's entire track history